CPX673 Details

Departure: Grand Bahama International Airport (MYGF)
Arrival: Lynden Pindling International Airport (MYNN)
Route: ZFP BR65V ZQA


Current Weather Information
MYGF 221200Z 33010KT 9999 FEW035 19/12 A3002
MYNN 221200Z 34013KT 9999 FEW018 SCT035 22/15 A3002